Time;durP1;ratioP1;P1;durP2;ratioP2;P2;SDS_P1;SDS_P2;PMS_P1;PMS_P2;Temp;Humidity;BMP_temperature;BMP_pressure;BME280_temperature;BME280_humidity;BME280_pressure;Samples;Min_cycle;Max_cycle;Signal;HPM_P1;HPM_P2
2022/07/26 00:01:44;;;;;;;0.10;0.10;;;;;;;22.79;54.68;101003.91;5111205;28;20465;-37
2022/07/26 00:04:11;;;;;;;0.10;0.10;;;;;;;22.79;54.77;101003.09;5129185;28;20043;-39
2022/07/26 00:06:37;;;;;;;0.10;0.10;;;;;;;22.79;54.73;100998.34;5115754;28;22411;-37
2022/07/26 00:09:03;;;;;;;0.10;0.10;;;;;;;22.79;54.97;101001.13;5129281;28;20043;-39
2022/07/26 00:11:32;;;;;;;0.10;0.10;;;;;;;22.81;54.66;101005.56;5111256;28;20127;-37
2022/07/26 00:14:00;;;;;;;0.10;0.10;;;;;;;22.81;54.60;101011.94;5127940;27;20079;-37
2022/07/26 00:16:26;;;;;;;0.10;0.10;;;;;;;22.80;54.73;101004.75;5129121;28;20122;-37
2022/07/26 00:18:52;;;;;;;0.10;0.10;;;;;;;22.79;54.75;101003.09;5130376;27;20138;-37
2022/07/26 00:21:17;;;;;;;0.10;0.10;;;;;;;22.79;54.92;101015.00;5130564;28;20128;-36
2022/07/26 00:23:43;;;;;;;0.10;0.10;;;;;;;22.79;54.41;101006.69;5130549;27;20466;-37
2022/07/26 00:26:09;;;;;;;0.10;0.10;;;;;;;22.79;54.80;101006.69;5129108;27;20054;-39
2022/07/26 00:28:35;;;;;;;0.10;0.10;;;;;;;22.79;54.65;101006.69;5128650;27;20047;-37
2022/07/26 00:31:01;;;;;;;0.10;0.10;;;;;;;22.79;54.74;101001.13;5129753;27;20397;-37
2022/07/26 00:33:27;;;;;;;0.10;0.10;;;;;;;22.79;54.72;101001.13;5129386;27;20100;-37
2022/07/26 00:35:53;;;;;;;0.10;0.10;;;;;;;22.79;54.76;100995.56;5129548;28;20070;-38
2022/07/26 00:38:18;;;;;;;0.10;0.10;;;;;;;22.79;54.59;100995.56;5130796;27;20047;-37
2022/07/26 00:40:44;;;;;;;0.10;0.10;;;;;;;22.79;54.68;100991.97;5129514;28;20039;-37
2022/07/26 00:43:10;;;;;;;0.10;0.10;;;;;;;22.79;54.71;100998.34;5108990;28;20089;-37
2022/07/26 00:45:35;;;;;;;0.10;0.10;;;;;;;22.79;54.84;100994.75;5127662;27;20481;-40
2022/07/26 00:48:01;;;;;;;0.10;0.10;;;;;;;22.79;54.77;100998.34;5129348;27;20054;-38
2022/07/26 00:50:27;;;;;;;0.10;0.10;;;;;;;22.79;54.89;100997.53;5128722;27;20054;-38
2022/07/26 00:52:53;;;;;;;0.10;0.10;;;;;;;22.78;54.66;100999.50;5129615;27;20126;-39
2022/07/26 00:55:19;;;;;;;0.10;0.10;;;;;;;22.79;54.71;101005.88;5132181;27;20043;-41
2022/07/26 00:57:45;;;;;;;0.10;0.10;;;;;;;22.78;54.83;101002.25;5134467;27;20070;-38
2022/07/26 01:00:14;;;;;;;0.10;0.10;;;;;;;22.80;54.69;101001.97;5105416;28;20044;-39
2022/07/26 01:02:40;;;;;;;0.10;0.10;;;;;;;22.80;54.69;100999.19;5130790;28;20446;-37
2022/07/26 01:05:06;;;;;;;0.10;0.10;;;;;;;22.80;54.65;101004.75;5132157;28;20050;-37
2022/07/26 01:07:32;;;;;;;1.65;0.20;;;;;;;22.80;54.74;100996.44;5132820;28;20094;-38
2022/07/26 01:09:57;;;;;;;0.10;0.10;;;;;;;22.80;54.82;100999.19;5132065;28;20039;-37
2022/07/26 01:12:23;;;;;;;0.10;0.10;;;;;;;22.78;54.74;100995.88;5131913;28;20199;-37
2022/07/26 01:14:49;;;;;;;0.10;0.10;;;;;;;22.79;54.92;101001.13;5132474;28;20115;-37
2022/07/26 01:17:15;;;;;;;0.10;0.10;;;;;;;22.79;54.72;100992.81;5129674;27;20043;-39
2022/07/26 01:19:41;;;;;;;0.10;0.10;;;;;;;22.79;54.76;100998.34;5130971;27;20078;-37
2022/07/26 01:22:07;;;;;;;0.10;0.10;;;;;;;22.79;54.71;100992.81;5134550;27;20051;-39
2022/07/26 01:24:39;;;;;;;0.10;0.10;;;;;;;22.79;54.69;100994.75;5116202;28;20035;-38
2022/07/26 01:27:06;;;;;;;0.10;0.10;;;;;;;22.79;54.81;100994.75;5131465;28;20036;-36
2022/07/26 01:29:32;;;;;;;0.10;0.10;;;;;;;22.79;54.73;100998.34;5114466;28;20126;-39
2022/07/26 01:32:02;;;;;;;0.10;0.10;;;;;;;22.79;54.60;100997.53;5113483;27;20039;-37
2022/07/26 01:34:28;;;;;;;0.10;0.10;;;;;;;22.78;54.71;100999.50;5111376;28;20073;-37
2022/07/26 01:36:55;;;;;;;0.10;0.10;;;;;;;22.78;54.70;100993.13;5113207;28;20100;-37
2022/07/26 01:39:20;;;;;;;0.10;0.10;;;;;;;22.79;54.81;100997.53;5131269;27;20479;-38
2022/07/26 01:41:46;;;;;;;0.10;0.10;;;;;;;22.78;54.66;100999.50;5132471;28;20039;-40
2022/07/26 01:44:12;;;;;;;0.10;0.10;;;;;;;22.79;54.72;101000.31;5131654;27;20435;-38
2022/07/26 01:46:38;;;;;;;0.10;0.10;;;;;;;22.79;54.68;100997.53;5131436;27;20130;-37
2022/07/26 01:49:05;;;;;;;0.10;0.10;;;;;;;22.79;54.83;100994.75;5132171;28;20408;-37
2022/07/26 01:51:31;;;;;;;0.10;0.10;;;;;;;22.79;54.81;101005.88;5132689;27;20047;-39
2022/07/26 01:53:57;;;;;;;0.10;0.10;;;;;;;22.79;54.60;101001.13;5133652;27;20136;-38
2022/07/26 01:56:23;;;;;;;0.20;0.20;;;;;;;22.79;54.69;101005.88;5132159;28;20319;-38
2022/07/26 01:58:49;;;;;;;0.10;0.10;;;;;;;22.79;54.76;101005.88;5132469;27;20044;-37
2022/07/26 02:01:14;;;;;;;0.10;0.10;;;;;;;22.79;54.66;101001.13;5111396;28;20046;-37
2022/07/26 02:03:40;;;;;;;0.10;0.10;;;;;;;22.78;54.81;101005.03;5113168;28;20057;-38
2022/07/26 02:06:06;;;;;;;0.10;0.10;;;;;;;22.79;54.61;101020.56;5131083;27;20050;-37
2022/07/26 02:08:32;;;;;;;0.10;0.10;;;;;;;22.79;54.85;101019.75;5131204;27;20087;-38
2022/07/26 02:10:59;;;;;;;0.10;0.10;;;;;;;22.79;54.52;101020.56;5131876;28;20065;-39
2022/07/26 02:13:31;;;;;;;0.10;0.10;;;;;;;22.79;54.64;101020.56;5106284;27;20047;-37
2022/07/26 02:15:57;;;;;;;0.10;0.10;;;;;;;22.79;54.68;101016.97;5130640;28;20081;-37
2022/07/26 02:18:25;;;;;;;0.10;0.10;;;;;;;22.79;54.58;101020.56;5112811;28;20043;-39
2022/07/26 02:20:51;;;;;;;0.10;0.10;;;;;;;22.81;54.73;101022.25;5097192;27;20482;-38
2022/07/26 02:23:16;;;;;;;0.10;0.10;;;;;;;22.79;54.75;101000.31;5111970;28;20470;-37
2022/07/26 02:25:42;;;;;;;0.10;0.10;;;;;;;22.78;54.84;101018.91;5132965;27;20461;-39
2022/07/26 02:28:08;;;;;;;0.10;0.10;;;;;;;22.78;54.68;101010.59;5130889;28;20042;-38
2022/07/26 02:30:33;;;;;;;0.10;0.10;;;;;;;22.78;54.77;101007.81;5112007;28;20043;-36
2022/07/26 02:32:59;;;;;;;0.10;0.10;;;;;;;22.79;54.69;101020.56;5122947;28;20047;-37
2022/07/26 02:35:24;;;;;;;0.10;0.10;;;;;;;22.78;54.71;101024.47;5131144;27;20400;-38
2022/07/26 02:37:50;;;;;;;0.10;0.10;;;;;;;22.78;54.84;101018.91;5130743;28;20047;-37
2022/07/26 02:40:16;;;;;;;0.10;0.10;;;;;;;22.78;54.90;101016.16;5111747;28;20135;-38
2022/07/26 02:42:44;;;;;;;0.10;0.10;;;;;;;22.78;54.79;101015.31;5131527;28;20058;-37
2022/07/26 02:45:10;;;;;;;0.10;0.10;;;;;;;22.79;54.68;101017.78;5129980;27;20035;-39
2022/07/26 02:47:47;;;;;;;0.10;0.10;;;;;;;22.79;54.68;101022.53;5129431;27;20493;-37
2022/07/26 02:50:16;;;;;;;0.10;0.10;;;;;;;22.79;54.77;101026.13;5121930;27;20129;-37
2022/07/26 02:52:42;;;;;;;0.10;0.10;;;;;;;22.79;54.73;101020.56;5111924;28;20483;-37
2022/07/26 02:55:08;;;;;;;0.10;0.10;;;;;;;22.79;54.88;101033.63;5131113;27;20095;-37
2022/07/26 02:57:34;;;;;;;0.10;0.10;;;;;;;22.78;54.70;101031.97;5095899;28;20086;-37
2022/07/26 03:00:13;;;;;;;0.10;0.10;;;;;;;22.79;54.68;101039.19;5130405;28;20130;-38
2022/07/26 03:02:39;;;;;;;0.10;0.10;;;;;;;22.79;54.77;101040.00;5131301;27;20125;-37
2022/07/26 03:05:06;;;;;;;0.10;0.10;;;;;;;22.78;54.79;101031.97;5130655;27;20039;-37
2022/07/26 03:07:32;;;;;;;0.10;0.10;;;;;;;22.79;54.75;101036.41;5130621;27;20082;-39
2022/07/26 03:09:58;;;;;;;0.10;0.10;;;;;;;22.79;54.76;101034.44;5094019;28;20456;-39
2022/07/26 03:12:24;;;;;;;0.10;0.10;;;;;;;22.80;54.71;101026.97;5130994;28;20074;-38
2022/07/26 03:14:50;;;;;;;0.10;0.10;;;;;;;22.79;54.75;101028.06;5130558;28;20046;-36
2022/07/26 03:17:16;;;;;;;0.10;0.10;;;;;;;22.79;54.71;101028.91;5128001;27;20078;-39
2022/07/26 03:19:41;;;;;;;0.10;0.10;;;;;;;22.79;54.74;101045.56;5130494;27;20050;-39
2022/07/26 03:22:07;;;;;;;0.10;0.10;;;;;;;22.79;54.78;101041.97;5131182;27;20047;-37
2022/07/26 03:24:33;;;;;;;0.10;0.10;;;;;;;22.78;54.75;101035.59;5114768;28;20047;-38
2022/07/26 03:26:59;;;;;;;0.10;0.10;;;;;;;22.78;54.66;101038.34;5129836;27;20039;-37
2022/07/26 03:29:24;;;;;;;0.13;0.13;;;;;;;22.79;54.57;101036.41;5129526;28;20397;-37
2022/07/26 03:31:50;;;;;;;0.10;0.10;;;;;;;22.79;54.77;101044.72;5130612;28;20047;-38
2022/07/26 03:34:16;;;;;;;0.10;0.10;;;;;;;22.79;54.68;101041.97;5129990;27;20466;-37
2022/07/26 03:36:43;;;;;;;0.10;0.10;;;;;;;22.79;54.75;101044.72;5130297;28;20043;-37
2022/07/26 03:39:09;;;;;;;0.10;0.10;;;;;;;22.79;54.76;101050.28;5129802;27;20070;-38
2022/07/26 03:41:34;;;;;;;0.10;0.10;;;;;;;22.78;54.78;101057.78;5117682;28;20050;-38
2022/07/26 03:44:00;;;;;;;0.10;0.10;;;;;;;22.78;54.61;101052.25;5129360;28;20427;-37
2022/07/26 03:46:26;;;;;;;0.10;0.10;;;;;;;22.78;54.71;101060.56;5127986;28;20047;-39
2022/07/26 03:48:52;;;;;;;0.10;0.10;;;;;;;22.79;54.73;101058.63;5130071;28;20085;-39
2022/07/26 03:51:17;;;;;;;0.10;0.10;;;;;;;22.78;54.82;101059.75;5130535;28;20045;-38
2022/07/26 03:53:43;;;;;;;0.10;0.10;;;;;;;22.78;54.53;101066.13;5130102;27;20364;-37
2022/07/26 03:56:40;;;;;;;0.10;0.10;;;;;;;22.79;54.83;101062.22;5129743;28;20072;-39
2022/07/26 03:58:54;;;;;;;0.10;0.10;;;;;;;22.79;54.64;101064.16;5112897;28;20074;-39
2022/07/26 04:01:20;;;;;;;0.10;0.10;;;;;;;22.78;54.79;101070.84;5130139;28;20374;-37
2022/07/26 04:03:46;;;;;;;0.10;0.10;;;;;;;22.79;54.67;101065.00;5130635;27;20091;-36
2022/07/26 04:06:13;;;;;;;0.10;0.10;;;;;;;22.79;54.67;101072.50;5129172;28;20047;-39
2022/07/26 04:08:39;;;;;;;0.10;0.10;;;;;;;22.79;54.84;101075.28;5129125;28;20078;-37
2022/07/26 04:11:05;;;;;;;0.10;0.10;;;;;;;22.78;54.79;101070.84;5130456;28;20050;-37
2022/07/26 04:13:30;;;;;;;0.10;0.10;;;;;;;22.79;54.69;101083.59;5128965;27;20044;-39
2022/07/26 04:15:56;;;;;;;0.10;0.10;;;;;;;22.78;54.88;101073.63;5128297;28;20047;-39
2022/07/26 04:18:22;;;;;;;0.10;0.10;;;;;;;22.79;54.75;101080.81;5130131;27;20038;-37
2022/07/26 04:20:50;;;;;;;0.10;0.10;;;;;;;22.79;54.78;101080.81;5128931;28;20082;-37
2022/07/26 04:23:15;;;;;;;0.10;0.10;;;;;;;22.79;54.64;101084.44;5128987;27;20062;-36
2022/07/26 04:25:41;;;;;;;0.10;0.10;;;;;;;22.78;54.69;101076.41;5130594;27;20051;-40
2022/07/26 04:28:08;;;;;;;0.10;0.10;;;;;;;22.79;54.88;101078.06;5129257;27;20051;-37
2022/07/26 04:30:33;;;;;;;0.10;0.10;;;;;;;22.78;54.74;101082.78;5113448;28;20097;-37
2022/07/26 04:32:59;;;;;;;0.10;0.10;;;;;;;22.79;54.68;101087.19;5133525;28;20043;-38
2022/07/26 04:35:24;;;;;;;0.10;0.10;;;;;;;22.78;54.82;101084.75;5132225;28;20058;-37
2022/07/26 04:37:50;;;;;;;0.10;0.10;;;;;;;22.78;54.26;101082.78;5132819;28;20063;-38
2022/07/26 04:40:18;;;;;;;0.10;0.10;;;;;;;22.78;54.68;101090.28;5132740;27;20039;-37
2022/07/26 04:42:47;;;;;;;0.10;0.10;;;;;;;22.78;54.54;101088.34;5132549;27;20439;-37
2022/07/26 04:45:13;;;;;;;0.10;0.10;;;;;;;22.79;54.78;101094.72;5114222;28;20479;-37
2022/07/26 04:47:41;;;;;;;0.10;0.10;;;;;;;22.79;54.68;101097.50;5130721;27;20043;-37
2022/07/26 04:50:07;;;;;;;;;;;;;;;22.79;54.83;101089.97;5114995;28;20083;-39
2022/07/26 04:52:33;;;;;;;0.10;0.10;;;;;;;22.78;54.78;101095.84;5133299;28;20009;-38
2022/07/26 04:54:59;;;;;;;0.10;0.10;;;;;;;22.78;54.75;101090.28;5133579;27;20082;-37
2022/07/26 04:57:25;;;;;;;0.10;0.10;;;;;;;22.78;54.66;101091.13;5131639;27;20051;-39
2022/07/26 04:59:50;;;;;;;0.10;0.10;;;;;;;22.77;55.02;101092.25;5133365;27;20039;-39
2022/07/26 05:02:36;;;;;;;0.10;0.10;;;;;;;22.78;54.82;101093.88;5117474;28;20062;-38
2022/07/26 05:05:03;;;;;;;0.10;0.10;;;;;;;22.77;54.69;101100.56;5123963;28;20400;-38
2022/07/26 05:07:42;;;;;;;0.10;0.10;;;;;;;22.78;54.75;101105.00;5133093;28;20533;-39
2022/07/26 05:10:09;;;;;;;0.10;0.10;;;;;;;22.78;54.86;101107.78;5110537;28;20138;-38
2022/07/26 05:12:35;;;;;;;0.10;0.10;;;;;;;22.78;54.66;101107.78;5132114;28;20405;-39
2022/07/26 05:15:00;;;;;;;0.10;0.10;;;;;;;22.78;54.84;101105.00;5114428;27;20484;-39
2022/07/26 05:17:29;;;;;;;0.10;0.10;;;;;;;22.78;54.76;101107.78;5130271;27;20151;-39
2022/07/26 05:19:56;;;;;;;0.10;0.10;;;;;;;22.78;54.92;101107.78;5132154;27;20579;-38
2022/07/26 05:22:28;;;;;;;0.10;0.10;;;;;;;22.78;54.69;101105.00;5132490;28;20043;-38
2022/07/26 05:24:53;;;;;;;0.10;0.10;;;;;;;22.78;54.73;101095.84;5132169;28;20048;-38
2022/07/26 05:27:19;;;;;;;0.10;0.10;;;;;;;22.78;54.68;101106.94;5131092;27;20076;-38
2022/07/26 05:29:45;;;;;;;0.10;0.10;;;;;;;22.78;54.70;101105.00;5131960;27;20146;-39
2022/07/26 05:32:10;;;;;;;0.10;0.10;;;;;;;22.78;54.67;101107.78;5131841;28;20053;-39
2022/07/26 05:34:36;;;;;;;0.10;0.10;;;;;;;22.77;54.68;101099.75;5132282;28;20039;-38
2022/07/26 05:37:01;;;;;;;0.10;0.10;;;;;;;22.77;54.69;101099.75;5132164;28;20043;-39
2022/07/26 05:39:27;;;;;;;0.10;0.10;;;;;;;22.79;54.84;101100.25;5131804;27;20038;-39
2022/07/26 05:41:53;;;;;;;0.10;0.10;;;;;;;22.78;54.78;101095.84;5131407;28;20042;-39
2022/07/26 05:44:18;;;;;;;0.10;0.10;;;;;;;22.78;55.10;101095.84;5131727;28;20043;-38
2022/07/26 05:46:44;;;;;;;0.10;0.10;;;;;;;22.78;54.71;101106.94;5130390;27;20043;-38
2022/07/26 05:49:10;;;;;;;0.10;0.10;;;;;;;22.78;54.75;101096.66;5132156;27;20047;-37
2022/07/26 05:51:35;;;;;;;0.10;0.10;;;;;;;22.78;54.66;101102.22;5132104;28;20035;-37
2022/07/26 05:54:01;;;;;;;0.10;0.10;;;;;;;22.77;54.85;101097.81;5132848;27;20503;-37
2022/07/26 05:56:27;;;;;;;0.10;0.10;;;;;;;22.77;54.69;101103.34;5131652;28;20042;-38
2022/07/26 05:58:52;;;;;;;0.10;0.10;;;;;;;22.78;54.71;101104.19;5134269;27;20047;-39
2022/07/26 06:01:18;;;;;;;0.10;0.10;;;;;;;22.78;54.77;101102.22;5131254;27;20096;-37
2022/07/26 06:03:44;;;;;;;0.10;0.10;;;;;;;22.77;54.67;101097.81;5132321;27;20099;-38
2022/07/26 06:06:10;;;;;;;0.10;0.10;;;;;;;22.78;54.87;101105.00;5130972;28;20043;-37
2022/07/26 06:08:36;;;;;;;0.10;0.10;;;;;;;22.78;54.82;101106.94;5131905;27;20039;-36
2022/07/26 06:11:02;;;;;;;0.10;0.10;;;;;;;22.78;54.78;101106.94;5131183;27;20067;-38
2022/07/26 06:13:28;;;;;;;0.10;0.10;;;;;;;22.78;54.81;101110.56;5120230;28;20043;-39
2022/07/26 06:15:53;;;;;;;0.10;0.10;;;;;;;22.78;54.99;101112.50;5113509;28;20049;-38
2022/07/26 06:18:19;;;;;;;0.10;0.10;;;;;;;22.77;54.73;101114.47;5132531;27;20043;-37
2022/07/26 06:20:46;;;;;;;0.10;0.10;;;;;;;22.77;54.79;101117.22;5114758;28;20193;-38
2022/07/26 06:23:12;;;;;;;0.10;0.10;;;;;;;22.78;54.77;101115.28;5131465;27;20452;-38
2022/07/26 06:25:38;;;;;;;0.10;0.10;;;;;;;22.79;54.78;101114.97;5131164;27;20062;-37
2022/07/26 06:28:04;;;;;;;0.10;0.10;;;;;;;22.79;54.80;101119.69;5111441;27;20085;-39
2022/07/26 06:30:30;;;;;;;0.10;0.10;;;;;;;22.78;54.83;101129.16;5130461;27;20128;-39
2022/07/26 06:32:56;;;;;;;0.10;0.10;;;;;;;22.78;54.73;101127.22;5130170;27;20035;-38
2022/07/26 06:35:23;;;;;;;0.10;0.10;;;;;;;22.78;54.87;101134.72;5112454;28;20317;-39
2022/07/26 06:37:49;;;;;;;0.10;0.10;;;;;;;22.78;54.85;101135.53;5118706;28;20081;-38
2022/07/26 06:40:14;;;;;;;0.10;0.10;;;;;;;22.79;54.78;101139.13;5117303;28;20075;-37
2022/07/26 06:42:40;;;;;;;0.10;0.10;;;;;;;22.79;54.68;101147.47;5131226;28;20046;-38
2022/07/26 06:45:06;;;;;;;0.10;0.10;;;;;;;22.78;54.77;101148.59;5112438;28;20124;-38
2022/07/26 06:47:34;;;;;;;0.13;0.13;;;;;;;22.78;54.71;101149.41;5129334;28;20075;-37
2022/07/26 06:50:00;;;;;;;0.10;0.10;;;;;;;22.78;54.97;101146.66;5131965;27;20521;-37
2022/07/26 06:52:26;;;;;;;0.55;0.30;;;;;;;22.78;54.94;101143.03;5129337;27;20067;-38
2022/07/26 06:54:51;;;;;;;0.10;0.10;;;;;;;22.78;54.71;101146.66;5132056;28;20043;-37
2022/07/26 06:57:17;;;;;;;0.10;0.10;;;;;;;22.76;54.69;101146.13;5131263;28;20128;-39
2022/07/26 06:59:42;;;;;;;0.10;0.10;;;;;;;22.78;54.74;101149.41;5129923;28;20363;-38
2022/07/26 07:02:08;;;;;;;0.10;0.10;;;;;;;22.78;54.63;101154.16;5131861;27;20074;-39
2022/07/26 07:04:34;;;;;;;0.10;0.10;;;;;;;22.77;54.67;101147.78;5130825;27;20040;-37
2022/07/26 07:07:02;;;;;;;0.10;0.10;;;;;;;22.78;54.88;101154.16;5129916;27;20049;-37
2022/07/26 07:09:31;;;;;;;0.10;0.10;;;;;;;22.78;54.82;101159.72;5130066;27;20148;-39
2022/07/26 07:11:57;;;;;;;0.10;0.10;;;;;;;22.78;54.92;101159.72;5111206;28;20140;-38
2022/07/26 07:14:32;;;;;;;0.10;0.10;;;;;;;22.77;54.79;101153.34;5130491;28;20054;-39
2022/07/26 07:16:58;;;;;;;0.10;0.10;;;;;;;22.77;54.77;101147.78;5129468;28;20100;-38
2022/07/26 07:19:24;;;;;;;0.10;0.10;;;;;;;22.78;54.84;101163.31;5130162;27;20058;-38
2022/07/26 07:21:50;;;;;;;0.10;0.10;;;;;;;22.78;54.80;101159.72;5118108;27;20086;-38
2022/07/26 07:24:16;;;;;;;0.20;0.20;;;;;;;22.78;54.78;101168.84;5131077;27;20066;-37
2022/07/26 07:26:41;;;;;;;0.10;0.10;;;;;;;22.78;54.70;101171.63;5129499;28;20130;-37
2022/07/26 07:29:11;;;;;;;0.10;0.10;;;;;;;22.78;54.73;101173.59;5116291;28;20047;-39
2022/07/26 07:31:37;;;;;;;0.10;0.10;;;;;;;22.78;54.69;101184.69;5099692;28;20378;-38
2022/07/26 07:34:14;;;;;;;0.10;0.10;;;;;;;22.78;54.91;101181.91;5130075;27;20137;-38
2022/07/26 07:36:40;;;;;;;0.10;0.10;;;;;;;22.79;54.86;101175.22;5121218;28;20315;-38
2022/07/26 07:39:07;;;;;;;0.13;0.13;;;;;;;22.78;54.77;101179.97;5112348;28;20054;-39
2022/07/26 07:41:43;;;;;;;0.10;0.10;;;;;;;22.78;54.76;101176.38;5129756;28;20493;-38
2022/07/26 07:44:09;;;;;;;0.10;0.10;;;;;;;22.78;54.73;101181.91;5129633;28;20136;-37
2022/07/26 07:46:35;;;;;;;0.10;0.10;;;;;;;22.77;54.59;101186.66;5129014;28;20039;-38
2022/07/26 07:49:01;;;;;;;0.10;0.10;;;;;;;22.78;54.76;101188.28;5131864;27;20530;-39
2022/07/26 07:51:27;;;;;;;0.10;0.10;;;;;;;22.77;54.68;101192.19;5112343;28;20047;-37
2022/07/26 07:53:55;;;;;;;0.10;0.10;;;;;;;22.78;54.76;101193.84;5111819;28;20093;-38
2022/07/26 07:56:23;;;;;;;0.10;0.10;;;;;;;22.78;54.78;101190.25;5113568;28;20039;-39
2022/07/26 07:58:49;;;;;;;0.10;0.10;;;;;;;22.78;54.56;101191.06;5110586;28;20129;-38
2022/07/26 08:01:17;;;;;;;0.10;0.10;;;;;;;22.78;54.85;101185.50;5129934;27;20067;-39
2022/07/26 08:03:43;;;;;;;0.10;0.10;;;;;;;22.78;54.80;101190.25;5133094;27;20074;-38
2022/07/26 08:06:16;;;;;;;0.10;0.10;;;;;;;22.77;54.76;101189.44;5133957;28;20103;-37
2022/07/26 08:08:41;;;;;;;0.10;0.10;;;;;;;22.77;54.83;101191.38;5134709;27;20039;-36
2022/07/26 08:11:08;;;;;;;0.10;0.10;;;;;;;22.78;54.78;101202.19;5132435;27;20104;-38
2022/07/26 08:13:34;;;;;;;0.10;0.10;;;;;;;22.78;54.86;101204.94;5133629;27;20047;-38
2022/07/26 08:15:59;;;;;;;0.10;0.10;;;;;;;22.79;54.93;101203.00;5132007;28;20101;-38
2022/07/26 08:18:26;;;;;;;0.10;0.10;;;;;;;22.79;54.73;101200.22;5133618;27;20054;-36
2022/07/26 08:20:53;;;;;;;0.10;0.10;;;;;;;22.77;54.83;101203.31;5133942;28;20077;-38
2022/07/26 08:23:19;;;;;;;0.10;0.10;;;;;;;22.78;54.91;101195.81;5133050;27;20043;-39
2022/07/26 08:25:44;;;;;;;0.10;0.10;;;;;;;22.78;54.78;101193.84;5133932;27;20808;-39
2022/07/26 08:28:22;;;;;;;0.10;0.10;;;;;;;22.77;54.78;101191.38;5133167;28;20078;-37
2022/07/26 08:31:08;;;;;;;0.10;0.10;;;;;;;22.77;54.66;101188.59;5115828;28;20046;-39
2022/07/26 08:33:34;;;;;;;0.10;0.10;;;;;;;22.77;54.74;101194.97;5133012;27;20047;-39
2022/07/26 08:35:59;;;;;;;0.10;0.10;;;;;;;22.77;54.78;101194.97;5132885;27;20047;-37
2022/07/26 08:38:25;;;;;;;0.10;0.10;;;;;;;22.78;54.73;101190.25;5132604;27;20504;-37
2022/07/26 08:40:51;;;;;;;0.10;0.10;;;;;;;22.78;54.86;101196.63;5133036;27;20092;-36
2022/07/26 08:43:16;;;;;;;0.10;0.10;;;;;;;22.78;54.93;101201.34;5133218;27;20035;-37
2022/07/26 08:45:44;;;;;;;0.10;0.10;;;;;;;22.78;54.82;101190.25;5130690;27;20058;-37
2022/07/26 08:48:10;;;;;;;0.10;0.10;;;;;;;22.78;54.68;101198.56;5133528;28;20071;-38
2022/07/26 08:50:44;;;;;;;0.10;0.10;;;;;;;22.78;54.73;101193.03;5132557;28;20107;-39
2022/07/26 08:53:11;;;;;;;0.10;0.10;;;;;;;22.80;54.92;101199.13;5133101;27;20258;-37
2022/07/26 08:55:37;;;;;;;0.10;0.10;;;;;;;22.78;54.76;101191.06;5132103;27;20050;-36
2022/07/26 08:58:23;;;;;;;0.10;0.10;;;;;;;22.77;54.94;101197.75;5115085;28;20047;-38
2022/07/26 09:01:12;;;;;;;0.10;0.10;;;;;;;22.77;54.77;101192.19;5121294;28;20058;-37
2022/07/26 09:03:40;;;;;;;0.10;0.10;;;;;;;22.79;54.83;101191.91;5114192;28;20126;-35
2022/07/26 09:06:22;;;;;;;0.10;0.10;;;;;;;22.78;54.68;101198.56;5121737;28;20062;-37
2022/07/26 09:08:51;;;;;;;0.10;0.10;;;;;;;22.79;54.76;101189.13;5113457;28;20054;-39
2022/07/26 09:11:32;;;;;;;0.10;0.10;;;;;;;22.78;54.68;101190.25;5133156;27;20469;-38
2022/07/26 09:14:01;;;;;;;0.10;0.10;;;;;;;22.77;54.85;101194.16;5113749;27;20082;-38
2022/07/26 09:16:27;;;;;;;0.10;0.10;;;;;;;22.77;54.78;101194.16;5110726;28;20164;-37
2022/07/26 09:18:54;;;;;;;0.10;0.10;;;;;;;22.77;54.75;101203.31;5132455;27;20051;-39
2022/07/26 09:21:29;;;;;;;0.10;0.10;;;;;;;22.77;54.65;101203.31;5133021;28;20461;-37
2022/07/26 09:23:54;;;;;;;0.10;0.10;;;;;;;22.78;54.76;101199.41;5092652;28;20104;-39
2022/07/26 09:26:22;;;;;;;0.10;0.10;;;;;;;22.78;54.62;101204.13;5132577;28;20043;-37
2022/07/26 09:29:09;;;;;;;0.10;0.10;;;;;;;22.77;54.79;101203.31;5119244;28;20179;-37
2022/07/26 09:31:36;;;;;;;0.10;0.10;;;;;;;22.77;54.84;101203.31;5103160;28;20472;-37
2022/07/26 09:34:03;;;;;;;0.10;0.10;;;;;;;22.78;54.80;101209.69;5132316;27;20461;-37
2022/07/26 09:36:30;;;;;;;0.10;0.10;;;;;;;22.78;54.70;101213.28;5132118;27;20485;-37
2022/07/26 09:38:59;;;;;;;0.10;0.10;;;;;;;22.78;54.82;101215.25;5114450;28;20469;-37
2022/07/26 09:41:29;;;;;;;0.10;0.10;;;;;;;22.77;54.91;101211.63;5131999;28;20130;-37
2022/07/26 09:44:01;;;;;;;0.10;0.10;;;;;;;22.78;54.79;101213.28;5131197;27;20387;-39
2022/07/26 09:46:28;;;;;;;0.10;0.10;;;;;;;22.78;54.94;101226.34;5131373;27;20081;-37
2022/07/26 09:48:55;;;;;;;0.10;0.10;;;;;;;22.78;54.84;101223.56;5132032;28;20087;-38
2022/07/26 09:51:40;;;;;;;0.10;0.10;;;;;;;22.77;54.91;101219.97;5121297;28;20066;-38
2022/07/26 09:54:06;;;;;;;;;;;;;;;22.77;54.75;101224.69;5112985;28;20047;-39
2022/07/26 09:56:50;;;;;;;0.10;0.10;;;;;;;22.76;54.93;101223.88;5131677;28;19927;-39
2022/07/26 09:59:19;;;;;;;0.10;0.10;;;;;;;22.77;54.86;101231.06;5130713;28;20700;-37
2022/07/26 10:01:45;;;;;;;0.10;0.10;;;;;;;22.78;54.75;101231.91;5132179;27;20062;-39
2022/07/26 10:04:12;;;;;;;0.10;0.10;;;;;;;22.77;54.67;101239.41;5121213;28;20047;-38
2022/07/26 10:06:39;;;;;;;0.10;0.10;;;;;;;22.77;54.98;101239.41;5101465;28;20456;-35
2022/07/26 10:09:06;;;;;;;0.10;0.10;;;;;;;22.78;54.76;101229.13;5112051;27;20101;-38
2022/07/26 10:11:39;;;;;;;0.20;0.20;;;;;;;22.77;54.89;101238.59;5131256;27;20130;-36
2022/07/26 10:14:33;;;;;;;0.10;0.10;;;;;;;22.78;54.83;101237.44;5112315;28;21969;-38
2022/07/26 10:17:00;;;;;;;0.10;0.10;;;;;;;22.77;54.94;101238.59;5122461;28;20086;-38
2022/07/26 10:19:41;;;;;;;0.10;0.10;;;;;;;22.78;54.73;101232.72;5112293;28;20039;-38
2022/07/26 10:22:32;;;;;;;0.13;0.13;;;;;;;22.77;54.73;101236.63;5130135;27;20035;-38
2022/07/26 10:27:57;;;;;;;0.10;0.10;;;;;;;22.78;54.90;101229.13;5168123;27;20113;-38
2022/07/26 10:30:25;;;;;;;0.10;0.10;;;;;;;22.78;54.73;101218.84;5165171;27;20047;-39
2022/07/26 10:33:06;;;;;;;0.10;0.10;;;;;;;22.78;54.74;101226.34;5164996;27;20086;-37
2022/07/26 10:38:26;;;;;;;0.10;0.10;;;;;;;22.77;54.73;101228.31;5182987;27;20140;-38
2022/07/26 10:41:01;;;;;;;0.10;0.10;;;;;;;22.78;54.85;101218.00;5149096;27;20066;-38
2022/07/26 10:43:27;;;;;;;0.10;0.10;;;;;;;22.78;54.78;101224.38;5166694;27;20455;-39
2022/07/26 10:51:35;;;;;;;0.10;0.10;;;;;;;22.77;54.84;101236.63;5164357;27;20538;-38
2022/07/26 10:54:05;;;;;;;0.10;0.10;;;;;;;22.78;54.74;101245.78;5144183;27;20047;-39
2022/07/26 10:56:31;;;;;;;0.10;0.10;;;;;;;22.78;54.81;101249.38;5147270;27;20074;-38
2022/07/26 10:58:59;;;;;;;0.10;0.10;;;;;;;22.77;54.84;101255.25;5129186;27;20059;-39
2022/07/26 11:01:41;;;;;;;0.10;0.10;;;;;;;22.77;54.71;101256.06;5161568;27;20050;-38
2022/07/26 11:04:24;;;;;;;0.10;0.10;;;;;;;22.78;54.77;101259.66;5146266;27;20042;-37
2022/07/26 11:06:49;;;;;;;0.10;0.10;;;;;;;22.76;54.77;101257.19;5165725;27;20481;-38
2022/07/26 11:09:17;;;;;;;0.10;0.10;;;;;;;22.78;54.77;101260.50;5165318;27;20472;-37
2022/07/26 11:11:46;;;;;;;0.10;0.10;;;;;;;22.78;54.73;101273.53;5147107;27;20401;-37
2022/07/26 11:14:14;;;;;;;0.10;0.10;;;;;;;22.78;54.85;101279.91;5162098;27;20043;-37
2022/07/26 11:16:42;;;;;;;0.10;0.10;;;;;;;22.77;54.84;101275.50;5129718;27;20061;-39
2022/07/26 11:19:17;;;;;;;0.10;0.10;;;;;;;22.77;54.91;101283.00;5163133;27;20070;-39
2022/07/26 11:21:44;;;;;;;0.10;0.10;;;;;;;22.77;54.70;101289.38;5146949;27;20496;-39
2022/07/26 11:24:10;;;;;;;0.10;0.10;;;;;;;22.78;54.77;101288.25;5146694;27;20183;-38
2022/07/26 11:26:41;;;;;;;0.10;0.10;;;;;;;22.78;54.76;101287.44;5164369;27;20501;-38
2022/07/26 11:29:07;;;;;;;0.10;0.10;;;;;;;22.76;54.87;101279.41;5145738;27;20093;-39
2022/07/26 11:31:43;;;;;;;0.10;0.10;;;;;;;22.77;54.77;101289.38;5163868;27;20153;-37
2022/07/26 11:34:28;;;;;;;0.10;0.10;;;;;;;22.78;54.76;101296.59;5144533;27;20516;-38
2022/07/26 11:36:55;;;;;;;0.10;0.10;;;;;;;22.77;54.92;101294.94;5164722;27;20081;-38
2022/07/26 11:39:23;;;;;;;0.10;0.10;;;;;;;22.77;54.83;101285.78;5145523;27;20318;-38
2022/07/26 11:41:51;;;;;;;0.10;0.10;;;;;;;22.77;54.73;101281.06;5129388;27;20073;-38